Time;durP1;ratioP1;P1;durP2;ratioP2;P2;SDS_P1;SDS_P2;PMS_P1;PMS_P2;Temp;Humidity;BMP_temperature;BMP_pressure;BME280_temperature;BME280_humidity;BME280_pressure;Samples;Min_cycle;Max_cycle;Signal;HPM_P1;HPM_P2
2022/07/21 00:00:51;;;;;;;;;;;;;;;25.21;54.36;101377.03;5080555;28;19912;-80
2022/07/21 00:03:16;;;;;;;;;;;;;;;25.19;54.62;101370.75;5083306;28;19917;-80
2022/07/21 00:05:42;;;;;;;;;;;;;;;25.22;54.32;101373.47;5103659;28;19916;-80
2022/07/21 00:08:07;;;;;;;;;;;;;;;25.22;54.33;101373.47;5081810;28;19935;-80
2022/07/21 00:10:33;;;;;;;;;;;;;;;25.23;54.31;101372.59;5094082;28;19935;-80
2022/07/21 00:12:58;;;;;;;;;;;;;;;25.26;54.47;101364.56;5093884;28;19951;-80
2022/07/21 00:15:24;;;;;;;;;;;;;;;25.24;54.38;101365.47;5076048;28;19920;-80
2022/07/21 00:17:51;;;;;;;;;;;;;;;25.19;54.16;101360.06;5075529;28;19980;-80
2022/07/21 00:20:16;;;;;;;;;;;;;;;25.14;54.48;101361.81;5075822;28;19913;-80
2022/07/21 00:22:42;;;;;;;;;;;;;;;25.16;54.14;101357.38;5058627;28;19930;-80
2022/07/21 00:25:08;;;;;;;;;;;;;;;25.15;54.19;101353.81;5068186;28;19912;-81
2022/07/21 00:27:34;;;;;;;;;;;;;;;25.14;54.51;101352.00;5089016;28;19951;-81
2022/07/21 00:30:00;;;;;;;;;;;;;;;25.16;54.36;101344.00;5092975;28;19912;-80
2022/07/21 00:32:26;;;;;;;;;;;;;;;25.18;54.22;101347.56;5081612;28;20007;-80
2022/07/21 00:34:51;;;;;;;;;;;;;;;25.13;54.14;101344.00;5087196;28;19919;-81
2022/07/21 00:37:17;;;;;;;;;;;;;;;25.15;54.34;101339.56;5074095;28;19921;-81
2022/07/21 00:39:42;;;;;;;;;;;;;;;25.11;54.08;101340.44;5069869;28;19916;-81
2022/07/21 00:42:08;;;;;;;;;;;;;;;25.09;54.05;101342.22;5093487;28;19916;-81
2022/07/21 00:44:33;;;;;;;;;;;;;;;25.10;54.28;101328.84;5058605;28;19969;-81
2022/07/21 00:46:59;;;;;;;;;;;;;;;25.09;54.36;101329.72;5056693;28;19947;-81
2022/07/21 00:49:24;;;;;;;;;;;;;;;25.11;54.08;101325.28;5083706;28;19954;-80
2022/07/21 00:51:50;;;;;;;;;;;;;;;25.09;54.17;101326.19;5074156;28;19912;-80
2022/07/21 00:54:16;;;;;;;;;;;;;;;25.08;53.95;101324.38;5084682;28;19955;-81
2022/07/21 00:56:42;;;;;;;;;;;;;;;25.05;53.91;101321.72;5074713;28;19912;-80
2022/07/21 00:59:07;;;;;;;;;;;;;;;25.07;54.29;101315.47;5073706;28;19912;-81
2022/07/21 01:01:33;;;;;;;;;;;;;;;25.06;54.25;101313.72;5056041;28;20309;-80
2022/07/21 01:03:58;;;;;;;;;;;;;;;25.08;54.07;101311.94;5074395;28;19921;-80
2022/07/21 01:06:25;;;;;;;;;;;;;;;25.08;53.97;101311.00;5072764;28;20011;-79
2022/07/21 01:08:51;;;;;;;;;;;;;;;25.07;53.99;101309.25;5056762;28;20002;-81
2022/07/21 01:11:16;;;;;;;;;;;;;;;25.06;54.16;101310.13;5055619;28;19994;-81
2022/07/21 01:13:43;;;;;;;;;;;;;;;25.06;53.94;101315.47;5056257;28;20405;-81
2022/07/21 01:16:08;;;;;;;;;;;;;;;25.00;54.08;101316.34;5073655;28;20397;-81
2022/07/21 01:18:34;;;;;;;;;;;;;;;25.00;53.98;101305.66;5079532;28;19916;-81
2022/07/21 01:21:00;;;;;;;;;;;;;;;24.98;53.88;101302.09;5074519;28;19938;-81
2022/07/21 01:23:25;;;;;;;;;;;;;;;24.98;53.97;101294.97;5072297;28;19916;-80
2022/07/21 01:25:51;;;;;;;;;;;;;;;25.01;53.61;101295.88;5055386;28;19913;-80
2022/07/21 01:28:17;;;;;;;;;;;;;;;24.97;53.93;101301.19;5055470;28;19913;-80
2022/07/21 01:30:42;;;;;;;;;;;;;;;24.95;53.69;101296.72;5074140;28;19943;-80
2022/07/21 01:33:08;;;;;;;;;;;;;;;24.94;53.97;101297.63;5055252;28;19952;-81
2022/07/21 01:35:33;;;;;;;;;;;;;;;24.95;53.78;101294.06;5051210;28;20429;-80
2022/07/21 01:37:59;;;;;;;;;;;;;;;24.94;53.52;101285.16;5073501;28;19920;-80
2022/07/21 01:43:08;;;;;;;;;;;;;;;24.96;53.62;101283.38;5076634;28;20393;-80
2022/07/21 01:45:34;;;;;;;;;;;;;;;24.93;53.82;101286.06;5092430;28;19912;-80
2022/07/21 01:47:59;;;;;;;;;;;;;;;24.92;53.73;101278.91;5092147;28;19912;-80
2022/07/21 01:50:28;;;;;;;;;;;;;;;24.93;53.77;101283.38;5091981;28;19919;-80
2022/07/21 01:53:00;;;;;;;;;;;;;;;24.94;53.69;101279.81;5092276;28;20312;-80
2022/07/21 01:55:26;;;;;;;;;;;;;;;24.94;53.91;101273.59;5063392;28;20054;-79
2022/07/21 01:57:51;;;;;;;;;;;;;;;24.92;53.61;101264.66;5082799;28;19936;-78
2022/07/21 02:00:17;;;;;;;;;;;;;;;24.91;53.55;101269.13;5092946;28;19919;-79
2022/07/21 02:02:43;;;;;;;;;;;;;;;24.92;53.79;101264.66;5084508;28;19920;-80
2022/07/21 02:05:08;;;;;;;;;;;;;;;24.91;53.66;101268.22;5073579;28;20459;-80
2022/07/21 02:07:34;;;;;;;;;;;;;;;24.92;53.55;101270.00;5073812;28;19938;-81
2022/07/21 02:09:59;;;;;;;;;;;;;;;24.92;53.70;101262.00;5073411;28;19913;-81
2022/07/21 02:12:25;;;;;;;;;;;;;;;24.90;53.49;101258.44;5055791;28;19913;-81
2022/07/21 02:14:50;;;;;;;;;;;;;;;24.91;53.69;101260.19;5073029;28;19920;-81
2022/07/21 02:17:15;;;;;;;;;;;;;;;24.91;53.46;101261.13;5072540;28;20420;-81
2022/07/21 02:19:41;;;;;;;;;;;;;;;24.86;53.60;101256.63;5073063;28;19919;-80
2022/07/21 02:22:06;;;;;;;;;;;;;;;24.84;53.39;101255.72;5054834;28;19963;-80
2022/07/21 02:24:32;;;;;;;;;;;;;;;24.83;53.50;101254.84;5075049;28;19916;-80
2022/07/21 02:26:57;;;;;;;;;;;;;;;24.87;53.51;101261.06;5077370;28;19956;-80
2022/07/21 02:29:23;;;;;;;;;;;;;;;24.87;53.41;101253.97;5075646;28;19924;-80
2022/07/21 02:31:48;;;;;;;;;;;;;;;24.85;53.45;101254.84;5059088;28;19912;-81
2022/07/21 02:34:14;;;;;;;;;;;;;;;24.85;53.20;101254.84;5076633;28;19913;-80
2022/07/21 02:36:39;;;;;;;;;;;;;;;24.84;53.61;101253.94;5058600;28;20469;-80
2022/07/21 02:39:05;;;;;;;;;;;;;;;24.84;53.37;101253.06;5075478;28;19913;-81
2022/07/21 02:41:30;;;;;;;;;;;;;;;24.80;53.41;101249.47;5090982;28;20286;-79
2022/07/21 02:43:56;;;;;;;;;;;;;;;24.80;53.22;101249.47;5077633;28;20419;-80
2022/07/21 02:46:21;;;;;;;;;;;;;;;24.79;53.46;101251.28;5082395;28;19919;-80
2022/07/21 02:48:47;;;;;;;;;;;;;;;24.78;53.44;101246.78;5076427;28;19935;-81
2022/07/21 02:51:12;;;;;;;;;;;;;;;24.76;53.50;101237.91;5084140;28;19917;-80
2022/07/21 02:53:37;;;;;;;;;;;;;;;24.78;53.76;101243.25;5089133;28;20400;-80
2022/07/21 02:56:03;;;;;;;;;;;;;;;24.78;53.44;101238.78;5058159;28;19936;-80
2022/07/21 02:58:28;;;;;;;;;;;;;;;24.80;53.31;101238.78;5076118;28;20387;-80
2022/07/21 03:00:59;;;;;;;;;;;;;;;24.80;53.39;101233.44;5076262;28;20385;-81
2022/07/21 03:03:26;;;;;;;;;;;;;;;24.77;53.21;101230.78;5058410;28;20393;-81
2022/07/21 03:05:51;;;;;;;;;;;;;;;24.76;53.39;101223.66;5075056;28;19913;-80
2022/07/21 03:08:17;;;;;;;;;;;;;;;24.74;53.34;101226.34;5075050;28;19923;-81
2022/07/21 03:10:43;;;;;;;;;;;;;;;24.74;53.23;101228.09;5058729;28;19966;-80
2022/07/21 03:13:08;;;;;;;;;;;;;;;24.76;53.44;101220.97;5075757;28;19960;-80
2022/07/21 03:15:35;;;;;;;;;;;;;;;24.74;53.34;101229.00;5057969;28;20613;-80
2022/07/21 03:18:00;;;;;;;;;;;;;;;24.74;53.42;101230.75;5058398;28;20388;-80
2022/07/21 03:20:26;;;;;;;;;;;;;;;24.74;53.57;101231.69;5075897;28;20557;-80
2022/07/21 03:22:52;;;;;;;;;;;;;;;24.72;53.29;101228.13;5075963;28;20007;-81
2022/07/21 03:25:17;;;;;;;;;;;;;;;24.73;53.52;101218.31;5056927;28;20427;-80
2022/07/21 03:27:43;;;;;;;;;;;;;;;24.72;53.79;101216.50;5074312;28;19916;-81
2022/07/21 03:30:09;;;;;;;;;;;;;;;24.74;53.54;101204.97;5074600;28;20404;-81
2022/07/21 03:32:35;;;;;;;;;;;;;;;24.74;53.54;101209.41;5075079;28;19927;-80
2022/07/21 03:35:00;;;;;;;;;;;;;;;24.73;53.53;101208.50;5075173;28;20011;-80
2022/07/21 03:37:26;;;;;;;;;;;;;;;24.69;53.44;101209.38;5074170;28;19971;-80
2022/07/21 03:39:51;;;;;;;;;;;;;;;24.68;53.38;101212.97;5090035;28;19918;-80
2022/07/21 03:42:17;;;;;;;;;;;;;;;24.67;53.49;101213.84;5076357;28;19916;-80
2022/07/21 03:44:42;;;;;;;;;;;;;;;24.68;53.49;101209.38;5094390;28;20420;-82
2022/07/21 03:47:08;;;;;;;;;;;;;;;24.67;53.26;101207.59;5094197;28;19912;-81
2022/07/21 03:49:33;;;;;;;;;;;;;;;24.69;53.26;101208.50;5076183;28;19912;-81
2022/07/21 03:51:58;;;;;;;;;;;;;;;24.67;53.32;101207.59;5074936;28;20007;-81
2022/07/21 03:54:24;;;;;;;;;;;;;;;24.63;53.35;101206.69;5084559;28;19916;-80
2022/07/21 03:56:49;;;;;;;;;;;;;;;24.66;53.49;101209.41;5074740;28;19912;-81
2022/07/21 03:59:15;;;;;;;;;;;;;;;24.62;53.34;101212.03;5075187;28;19913;-81
2022/07/21 04:01:40;;;;;;;;;;;;;;;24.61;53.58;101210.25;5075153;28;19916;-81
2022/07/21 04:04:05;;;;;;;;;;;;;;;24.64;53.38;101210.25;5074938;28;20432;-81
2022/07/21 04:06:31;;;;;;;;;;;;;;;24.62;53.40;101204.94;5074646;28;20356;-80
2022/07/21 04:08:57;;;;;;;;;;;;;;;24.61;53.25;101204.91;5056291;28;20306;-81
2022/07/21 04:11:22;;;;;;;;;;;;;;;24.62;53.20;101202.25;5056405;28;19916;-80
2022/07/21 04:13:48;;;;;;;;;;;;;;;24.62;53.27;101209.34;5075899;28;19970;-80
2022/07/21 04:16:13;;;;;;;;;;;;;;;24.62;53.27;101204.94;5074745;28;19912;-81
2022/07/21 04:18:38;;;;;;;;;;;;;;;24.62;53.54;101204.94;5056402;28;20347;-81
2022/07/21 04:21:04;;;;;;;;;;;;;;;24.60;53.51;101203.16;5079727;28;19935;-80
2022/07/21 04:23:31;;;;;;;;;;;;;;;24.59;53.23;101196.88;5064458;28;19916;-81
2022/07/21 04:25:56;;;;;;;;;;;;;;;24.58;53.31;101206.69;5074370;28;20370;-80
2022/07/21 04:28:22;;;;;;;;;;;;;;;24.58;53.30;101211.16;5074537;28;19919;-81
2022/07/21 04:30:47;;;;;;;;;;;;;;;24.61;53.69;101213.81;5075196;28;19919;-79
2022/07/21 04:33:13;;;;;;;;;;;;;;;24.60;53.86;101197.81;5056552;28;19916;-81
2022/07/21 04:35:38;;;;;;;;;;;;;;;24.61;53.45;101205.78;5056381;28;19912;-81
2022/07/21 04:38:04;;;;;;;;;;;;;;;24.59;53.44;101212.91;5074687;28;19924;-80
2022/07/21 04:40:29;;;;;;;;;;;;;;;24.63;53.77;101205.81;5086791;28;19920;-81
2022/07/21 04:42:54;;;;;;;;;;;;;;;24.63;53.39;101211.16;5086280;28;20030;-81
2022/07/21 04:45:20;;;;;;;;;;;;;;;24.60;53.25;101206.69;5088380;28;19913;-81
2022/07/21 04:47:46;;;;;;;;;;;;;;;24.61;53.55;101205.78;5067026;28;19916;-80
2022/07/21 04:50:12;;;;;;;;;;;;;;;24.60;53.74;101204.03;5091494;28;19926;-79
2022/07/21 04:52:37;;;;;;;;;;;;;;;24.54;53.65;101210.22;5088877;28;19912;-80
2022/07/21 04:55:03;;;;;;;;;;;;;;;24.55;53.79;101196.00;5074759;28;19947;-79
2022/07/21 04:57:28;;;;;;;;;;;;;;;24.57;53.66;101196.91;5072941;28;20060;-79
2022/07/21 04:59:54;;;;;;;;;;;;;;;24.60;53.94;101197.81;5052576;28;20072;-82
2022/07/21 05:02:19;;;;;;;;;;;;;;;24.56;53.85;101194.22;5058739;28;19923;-80
2022/07/21 05:04:45;;;;;;;;;;;;;;;24.54;53.92;101196.00;5079645;28;19920;-80
2022/07/21 05:07:11;;;;;;;;;;;;;;;24.55;54.10;101196.00;5091830;28;20355;-80
2022/07/21 05:09:36;;;;;;;;;;;;;;;24.56;54.31;101202.22;5089183;28;19912;-80
2022/07/21 05:12:02;;;;;;;;;;;;;;;24.51;54.17;101198.63;5069399;28;19912;-80
2022/07/21 05:14:27;;;;;;;;;;;;;;;24.47;54.50;101192.38;5063841;28;19913;-80
2022/07/21 05:16:52;;;;;;;;;;;;;;;24.45;54.19;101198.56;5086707;28;19931;-80
2022/07/21 05:19:18;;;;;;;;;;;;;;;24.46;54.54;101193.25;5080242;28;20356;-80
2022/07/21 05:21:45;;;;;;;;;;;;;;;24.46;54.48;101193.25;5064461;28;19912;-80
2022/07/21 05:24:10;;;;;;;;;;;;;;;24.52;54.23;101184.41;5084269;28;19934;-79
2022/07/21 05:26:36;;;;;;;;;;;;;;;24.47;54.75;101192.38;5072524;28;19942;-79
2022/07/21 05:29:01;;;;;;;;;;;;;;;24.47;54.80;101181.72;5082973;28;19924;-79
2022/07/21 05:31:26;;;;;;;;;;;;;;;24.49;54.84;101187.97;5080114;28;19916;-79
2022/07/21 05:33:53;;;;;;;;;;;;;;;24.52;54.86;101185.31;5090978;28;19916;-79
2022/07/21 05:36:18;;;;;;;;;;;;;;;24.51;54.91;101185.28;5055965;28;19928;-80
2022/07/21 05:38:59;;;;;;;;;;;;;;;24.51;54.87;101187.97;5072441;28;19916;-80
2022/07/21 05:41:25;;;;;;;;;;;;;;;24.56;54.59;101178.19;5075514;28;19916;-80
2022/07/21 05:43:53;;;;;;;;;;;;;;;24.54;54.76;101188.88;5077629;28;19916;-79
2022/07/21 05:46:18;;;;;;;;;;;;;;;24.57;55.09;101188.91;5056335;28;20421;-79
2022/07/21 05:48:44;;;;;;;;;;;;;;;24.61;54.83;101181.75;5075245;28;20005;-79
2022/07/21 05:51:09;;;;;;;;;;;;;;;24.60;54.89;101204.03;5079452;28;19922;-79
2022/07/21 05:53:34;;;;;;;;;;;;;;;24.60;55.08;101195.13;5089797;28;21191;-79
2022/07/21 05:56:00;;;;;;;;;;;;;;;24.60;55.00;101198.69;5072935;28;19924;-79
2022/07/21 05:58:25;;;;;;;;;;;;;;;24.58;55.06;101200.47;5059154;28;19974;-80
2022/07/21 06:03:36;;;;;;;;;;;;;;;24.55;55.26;101200.44;5077962;28;19922;-79
2022/07/21 06:06:02;;;;;;;;;;;;;;;24.53;55.28;101197.78;5084900;28;19995;-80
2022/07/21 06:08:27;;;;;;;;;;;;;;;24.56;55.42;101194.22;5077566;28;20265;-80
2022/07/21 06:10:53;;;;;;;;;;;;;;;24.54;55.38;101201.34;5089980;28;19963;-80
2022/07/21 06:13:18;;;;;;;;;;;;;;;24.51;55.64;101196.88;5074104;28;20378;-78
2022/07/21 06:15:44;;;;;;;;;;;;;;;24.50;55.71;101197.75;5069900;28;19912;-79
2022/07/21 06:18:15;;;;;;;;;;;;;;;24.55;55.42;101208.44;5053232;28;20003;-80
2022/07/21 06:20:40;;;;;;;;;;;;;;;24.52;55.58;101204.00;5064727;28;20010;-79
2022/07/21 06:23:06;;;;;;;;;;;;;;;24.50;55.84;101204.88;5050767;28;20027;-80
2022/07/21 06:25:31;;;;;;;;;;;;;;;24.49;55.52;101204.00;5084696;28;19912;-80
2022/07/21 06:27:57;;;;;;;;;;;;;;;24.50;55.95;101202.22;5088323;28;19918;-80
2022/07/21 06:30:22;;;;;;;;;;;;;;;24.46;55.65;101205.72;5088223;28;20425;-80
2022/07/21 06:32:48;;;;;;;;;;;;;;;24.50;55.59;101205.75;5083277;28;20324;-79
2022/07/21 06:35:13;;;;;;;;;;;;;;;24.53;55.76;101210.22;5069704;28;20393;-79
2022/07/21 06:37:38;;;;;;;;;;;;;;;24.50;55.60;101211.09;5071506;28;19921;-79
2022/07/21 06:40:04;;;;;;;;;;;;;;;24.53;55.60;101220.91;5084578;28;19917;-80
2022/07/21 06:42:30;;;;;;;;;;;;;;;24.54;54.71;101234.25;5089487;28;20289;-80
2022/07/21 06:44:55;;;;;;;;;;;;;;;24.52;55.32;101227.13;5076227;28;20369;-79
2022/07/21 06:47:20;;;;;;;;;;;;;;;24.57;55.33;101231.63;5089290;28;20491;-80
2022/07/21 06:49:46;;;;;;;;;;;;;;;24.61;55.21;101239.63;5078339;28;19913;-80
2022/07/21 06:52:11;;;;;;;;;;;;;;;24.54;55.15;101242.28;5056005;28;20347;-80
2022/07/21 06:54:37;;;;;;;;;;;;;;;24.63;55.10;101243.19;5080019;28;19944;-80
2022/07/21 06:57:02;;;;;;;;;;;;;;;24.65;55.28;101242.31;5052690;28;19922;-79
2022/07/21 06:59:28;;;;;;;;;;;;;;;24.60;55.36;101246.75;5090851;28;19935;-79
2022/07/21 07:01:54;;;;;;;;;;;;;;;24.64;55.37;101250.31;5075659;28;19934;-81
2022/07/21 07:04:19;;;;;;;;;;;;;;;24.63;55.23;101249.44;5062898;28;20393;-81
2022/07/21 07:06:44;;;;;;;;;;;;;;;24.68;55.37;101246.75;5066142;28;20452;-80
2022/07/21 07:09:10;;;;;;;;;;;;;;;24.63;55.30;101249.44;5071150;28;19924;-79
2022/07/21 07:11:35;;;;;;;;;;;;;;;24.68;55.50;101245.00;5072449;28;19966;-79
2022/07/21 07:14:01;;;;;;;;;;;;;;;24.72;55.41;101240.56;5083158;28;20432;-83
2022/07/21 07:16:26;;;;;;;;;;;;;;;24.71;55.53;101247.69;5101045;28;19916;-80
2022/07/21 07:18:52;;;;;;;;;;;;;;;24.71;55.56;101241.44;5082373;28;19916;-78
2022/07/21 07:21:17;;;;;;;;;;;;;;;24.74;55.25;101247.69;5080042;28;19923;-80
2022/07/21 07:23:42;;;;;;;;;;;;;;;24.75;55.53;101245.91;5079680;28;19927;-80
2022/07/21 07:26:08;;;;;;;;;;;;;;;24.78;55.26;101252.13;5098390;28;19912;-80
2022/07/21 07:28:33;;;;;;;;;;;;;;;24.79;55.03;101245.94;5076799;28;19916;-79
2022/07/21 07:30:59;;;;;;;;;;;;;;;24.75;55.45;101249.47;5073135;28;19923;-80
2022/07/21 07:33:25;;;;;;;;;;;;;;;24.79;55.40;101245.03;5081082;28;19923;-80
2022/07/21 07:35:51;;;;;;;;;;;;;;;24.83;55.20;101240.56;5060231;28;19938;-81
2022/07/21 07:38:17;;;;;;;;;;;;;;;24.87;55.17;101245.03;5077117;28;20445;-81
2022/07/21 07:40:42;;;;;;;;;;;;;;;24.88;55.24;101246.84;5067892;28;20010;-80
2022/07/21 07:43:08;;;;;;;;;;;;;;;24.81;55.41;101248.63;5079654;28;20447;-80
2022/07/21 07:45:36;;;;;;;;;;;;;;;24.82;55.18;101241.47;5081129;28;19957;-79
2022/07/21 07:48:01;;;;;;;;;;;;;;;24.87;55.51;101250.38;5081242;28;19930;-80
2022/07/21 07:50:28;;;;;;;;;;;;;;;24.87;55.51;101248.63;5081144;28;19912;-79
2022/07/21 07:52:54;;;;;;;;;;;;;;;24.90;55.15;101253.09;5056517;28;19917;-79
2022/07/21 07:55:19;;;;;;;;;;;;;;;24.91;54.94;101254.84;5084947;28;19973;-81
2022/07/21 07:57:45;;;;;;;;;;;;;;;24.93;54.90;101245.97;5074367;28;20732;-80
2022/07/21 08:00:12;;;;;;;;;;;;;;;24.93;55.22;101250.41;5086536;28;20443;-79
2022/07/21 08:02:39;;;;;;;;;;;;;;;24.89;55.59;101245.94;5080479;28;19920;-81
2022/07/21 08:05:05;;;;;;;;;;;;;;;24.91;55.31;101258.44;5067546;28;19920;-80
2022/07/21 08:07:31;;;;;;;;;;;;;;;24.93;55.25;101259.34;5063868;28;20000;-80
2022/07/21 08:09:56;;;;;;;;;;;;;;;24.90;55.41;101250.41;5079980;28;19948;-79
2022/07/21 08:12:21;;;;;;;;;;;;;;;24.76;55.77;101243.25;5091100;28;19995;-80
2022/07/21 08:14:47;;;;;;;;;;;;;;;24.87;55.12;101242.38;5079198;28;19951;-81
2022/07/21 08:17:12;;;;;;;;;;;;;;;24.85;55.29;101247.75;5060678;28;19913;-80
2022/07/21 08:19:38;;;;;;;;;;;;;;;24.89;55.34;101248.63;5073629;28;19920;-79
2022/07/21 08:22:12;;;;;;;;;;;;;;;24.90;55.42;101237.94;5074450;28;19917;-80
2022/07/21 08:24:40;;;;;;;;;;;;;;;24.89;55.17;101245.94;5069145;28;19940;-80
2022/07/21 08:27:06;;;;;;;;;;;;;;;24.93;55.11;101237.03;5076786;28;20065;-81
2022/07/21 08:29:31;;;;;;;;;;;;;;;25.00;55.13;101241.53;5060450;28;20403;-81
2022/07/21 08:31:57;;;;;;;;;;;;;;;24.91;55.41;101242.41;5062082;28;19916;-78
2022/07/21 08:34:22;;;;;;;;;;;;;;;24.92;55.37;101238.84;5062741;28;19917;-78
2022/07/21 08:36:47;;;;;;;;;;;;;;;24.96;55.28;101237.97;5080973;28;19970;-81
2022/07/21 08:39:13;;;;;;;;;;;;;;;24.98;55.48;101245.97;5062570;28;20317;-80
2022/07/21 08:41:39;;;;;;;;;;;;;;;24.94;55.58;101236.19;5057445;28;19912;-80
2022/07/21 08:44:05;;;;;;;;;;;;;;;24.98;55.10;101237.97;5083759;28;20312;-81
2022/07/21 08:46:33;;;;;;;;;;;;;;;24.97;55.13;101238.84;5086450;28;20320;-80
2022/07/21 08:48:58;;;;;;;;;;;;;;;25.01;55.23;101240.63;5097106;28;19924;-80
2022/07/21 08:51:24;;;;;;;;;;;;;;;24.98;55.06;101240.63;5093085;28;19920;-80
2022/07/21 08:53:49;;;;;;;;;;;;;;;24.99;55.47;101234.41;5087211;28;20301;-79
2022/07/21 08:56:18;;;;;;;;;;;;;;;24.93;55.49;101240.63;5062184;28;19916;-81
2022/07/21 08:58:43;;;;;;;;;;;;;;;25.03;55.55;101229.94;5073961;28;19938;-80
2022/07/21 09:01:09;;;;;;;;;;;;;;;24.98;55.14;101235.28;5093761;28;19916;-79
2022/07/21 09:03:35;;;;;;;;;;;;;;;25.00;55.22;101236.19;5093318;28;20409;-79
2022/07/21 09:06:11;;;;;;;;;;;;;;;24.97;55.01;101225.47;5074738;28;19990;-79
2022/07/21 09:08:40;;;;;;;;;;;;;;;24.99;55.07;101231.72;5079270;28;20006;-81
2022/07/21 09:11:11;;;;;;;;;;;;;;;25.02;55.16;101236.16;5088178;28;19911;-81
2022/07/21 09:13:36;;;;;;;;;;;;;;;25.06;54.93;101238.88;5089320;28;20039;-80
2022/07/21 09:16:02;;;;;;;;;;;;;;;25.06;55.38;101233.53;5093711;28;20407;-79
2022/07/21 09:18:27;;;;;;;;;;;;;;;25.08;55.44;101231.75;5084887;28;20362;-79
2022/07/21 09:20:53;;;;;;;;;;;;;;;24.99;56.16;101231.72;5090754;28;19923;-80
2022/07/21 09:23:20;;;;;;;;;;;;;;;25.11;56.04;101236.22;5073249;28;20443;-80
2022/07/21 09:25:55;;;;;;;;;;;;;;;25.09;55.89;101235.31;5073576;28;20003;-79
2022/07/21 09:28:22;;;;;;;;;;;;;;;25.12;56.07;101235.31;5081372;28;19921;-80
2022/07/21 09:30:47;;;;;;;;;;;;;;;25.02;56.77;101229.06;5080171;28;19951;-80
2022/07/21 09:33:22;;;;;;;;;;;;;;;25.02;57.24;101239.75;5073469;28;19959;-80
2022/07/21 09:35:55;;;;;;;;;;;;;;;25.04;57.34;101232.63;5060673;28;20338;-80
2022/07/21 09:38:20;;;;;;;;;;;;;;;25.09;56.76;101240.66;5061483;28;20337;-80
2022/07/21 09:40:47;;;;;;;;;;;;;;;25.15;57.12;101248.69;5073237;28;19920;-80
2022/07/21 09:43:12;;;;;;;;;;;;;;;25.11;57.63;101241.56;5075011;28;19974;-79
2022/07/21 09:45:37;;;;;;;;;;;;;;;25.14;57.48;101246.88;5067196;28;19912;-79
2022/07/21 09:48:08;;;;;;;;;;;;;;;25.15;57.63;101238.88;5070176;28;19916;-80
2022/07/21 09:50:33;;;;;;;;;;;;;;;25.17;57.63;101234.44;5056039;28;19947;-80
2022/07/21 09:52:59;;;;;;;;;;;;;;;25.18;57.55;101246.00;5080584;28;19967;-81
2022/07/21 09:55:24;;;;;;;;;;;;;;;25.13;57.50;101234.44;5078497;28;19916;-80
2022/07/21 09:57:50;;;;;;;;;;;;;;;25.10;57.99;101242.41;5040569;28;19912;-80
2022/07/21 10:00:17;;;;;;;;;;;;;;;25.12;58.03;101246.00;5063643;28;19920;-79
2022/07/21 10:02:47;;;;;;;;;;;;;;;25.10;58.22;101247.78;5050006;28;19923;-80
2022/07/21 10:05:15;;;;;;;;;;;;;;;25.13;58.74;101245.13;5050430;28;19935;-80
2022/07/21 10:07:41;;;;;;;;;;;;;;;25.16;57.94;101243.31;5082737;28;19939;-80
2022/07/21 10:10:07;;;;;;;;;;;;;;;25.15;58.86;101238.88;5065683;28;19951;-79
2022/07/21 10:12:33;;;;;;;;;;;;;;;25.16;58.22;101234.41;5055597;28;19956;-79
2022/07/21 10:14:58;;;;;;;;;;;;;;;25.23;57.83;101248.72;5079295;28;20039;-81
2022/07/21 10:17:24;;;;;;;;;;;;;;;25.20;58.70;101244.25;5059374;28;19920;-80
2022/07/21 10:20:08;;;;;;;;;;;;;;;25.21;58.23;101246.06;5054725;28;19985;-81
2022/07/21 10:22:49;;;;;;;;;;;;;;;25.25;58.26;101245.19;5084126;28;19920;-80
2022/07/21 10:25:15;;;;;;;;;;;;;;;25.19;58.23;101245.13;5075063;28;19938;-79
2022/07/21 10:28:00;;;;;;;;;;;;;;;25.24;58.07;101246.06;5067871;28;19947;-80
2022/07/21 10:30:39;;;;;;;;;;;;;;;25.22;58.71;101242.47;5068635;28;19919;-79
2022/07/21 10:33:05;;;;;;;;;;;;;;;25.24;58.14;101238.03;5083132;28;20029;-81
2022/07/21 10:35:31;;;;;;;;;;;;;;;25.25;58.47;101239.84;5079683;28;19931;-80
2022/07/21 10:37:56;;;;;;;;;;;;;;;25.27;58.65;101245.16;5081457;28;19927;-79
2022/07/21 10:40:22;;;;;;;;;;;;;;;25.23;58.44;101246.97;5083539;28;19916;-79
2022/07/21 10:43:00;;;;;;;;;;;;;;;25.28;58.67;101246.94;5072356;28;19916;-80
2022/07/21 10:45:43;;;;;;;;;;;;;;;25.32;58.23;101246.06;5084758;28;19916;-80
2022/07/21 10:48:29;;;;;;;;;;;;;;;25.35;58.44;101243.38;5065436;28;20282;-79
2022/07/21 10:50:57;;;;;;;;;;;;;;;25.37;58.27;101241.59;5078440;28;19917;-80
2022/07/21 10:53:22;;;;;;;;;;;;;;;25.38;58.50;101249.63;5077179;28;19924;-81
2022/07/21 10:55:49;;;;;;;;;;;;;;;25.41;58.35;101250.53;5086537;28;19926;-81
2022/07/21 10:58:17;;;;;;;;;;;;;;;25.41;58.49;101240.72;5075726;28;20011;-79
2022/07/21 11:00:53;;;;;;;;;;;;;;;25.42;58.58;101244.28;5074677;28;19913;-79
2022/07/21 11:03:29;;;;;;;;;;;;;;;25.46;58.11;101248.72;5059507;28;19916;-79
2022/07/21 11:06:09;;;;;;;;;;;;;;;25.45;58.20;101244.28;5086063;28;20378;-79
2022/07/21 11:08:53;;;;;;;;;;;;;;;25.48;57.95;101249.63;5080551;28;19963;-79
2022/07/21 11:11:22;;;;;;;;;;;;;;;25.47;58.09;101245.19;5084356;28;19913;-79
2022/07/21 11:13:57;;;;;;;;;;;;;;;25.48;58.17;101242.50;5091746;28;19924;-80
2022/07/21 11:16:22;;;;;;;;;;;;;;;25.48;58.42;101250.50;5083827;28;20370;-80
2022/07/21 11:18:48;;;;;;;;;;;;;;;25.48;58.44;101244.28;5057751;28;19973;-79
2022/07/21 11:21:14;;;;;;;;;;;;;;;25.50;58.34;101246.06;5096244;28;20064;-81
2022/07/21 11:23:44;;;;;;;;;;;;;;;25.52;58.21;101249.63;5095215;28;19927;-80
2022/07/21 11:26:09;;;;;;;;;;;;;;;25.52;58.50;101249.63;5080957;28;19916;-81
2022/07/21 11:28:35;;;;;;;;;;;;;;;25.54;58.30;101255.84;5090069;28;19965;-81
2022/07/21 11:31:08;;;;;;;;;;;;;;;25.54;58.37;101250.50;5068095;28;20396;-83
2022/07/21 11:33:35;;;;;;;;;;;;;;;25.50;58.80;101255.88;5057700;28;19913;-83
2022/07/21 11:36:00;;;;;;;;;;;;;;;25.54;58.62;101263.00;5076895;28;19912;-83
2022/07/21 11:38:26;;;;;;;;;;;;;;;25.59;58.04;101258.56;5070186;28;19919;-83
2022/07/21 11:40:51;;;;;;;;;;;;;;;25.60;58.64;101271.03;5089592;28;19912;-83
2022/07/21 11:43:17;;;;;;;;;;;;;;;25.60;58.34;101273.69;5061242;28;20484;-84
2022/07/21 11:45:55;;;;;;;;;;;;;;;25.64;58.14;101271.94;5057366;28;19912;-83
2022/07/21 11:48:30;;;;;;;;;;;;;;;25.67;58.05;101269.25;5073189;28;19912;-83
2022/07/21 11:51:00;;;;;;;;;;;;;;;25.64;58.35;101266.56;5073917;28;19912;-83
2022/07/21 11:53:25;;;;;;;;;;;;;;;25.66;58.48;101275.50;5072191;28;19912;-83
2022/07/21 11:55:51;;;;;;;;;;;;;;;25.69;58.05;101275.47;5055512;28;19919;-82
2022/07/21 11:58:16;;;;;;;;;;;;;;;25.68;58.24;101269.25;5061391;28;19920;-83
2022/07/21 12:00:41;;;;;;;;;;;;;;;25.69;58.34;101263.00;5072752;28;19912;-83
2022/07/21 12:03:07;;;;;;;;;;;;;;;25.67;58.48;101259.44;5073577;28;19916;-83
2022/07/21 12:05:32;;;;;;;;;;;;;;;25.71;58.51;101265.66;5053230;28;20365;-83
2022/07/21 12:07:58;;;;;;;;;;;;;;;25.67;58.66;101259.44;5071449;28;19912;-83
2022/07/21 12:10:27;;;;;;;;;;;;;;;25.69;58.77;101265.66;5074192;28;19947;-83
2022/07/21 12:12:57;;;;;;;;;;;;;;;25.66;58.84;101265.69;5055949;28;20010;-83
2022/07/21 12:15:27;;;;;;;;;;;;;;;25.70;58.70;101262.13;5074634;28;19919;-83
2022/07/21 12:17:56;;;;;;;;;;;;;;;25.68;58.63;101266.56;5073903;28;19913;-84
2022/07/21 12:20:28;;;;;;;;;;;;;;;25.67;58.90;101264.78;5071917;28;19912;-83
2022/07/21 12:23:03;;;;;;;;;;;;;;;25.63;59.79;101271.00;5068383;28;19916;-82
2022/07/21 12:25:56;;;;;;;;;;;;;;;25.70;59.20;101274.59;5057445;28;19913;-80
2022/07/21 12:28:28;;;;;;;;;;;;;;;25.71;59.50;101281.72;5079393;28;19918;-80
2022/07/21 12:30:54;;;;;;;;;;;;;;;25.79;58.86;101274.59;5069215;28;19907;-80
2022/07/21 12:33:23;;;;;;;;;;;;;;;25.76;58.88;101282.59;5098186;28;19982;-80
2022/07/21 12:35:58;;;;;;;;;;;;;;;25.74;59.08;101285.31;5080586;28;20358;-80
2022/07/21 12:38:35;;;;;;;;;;;;;;;25.81;58.87;101288.88;5058144;28;19927;-80